JBU2152 KMCO-KBOS
Flight info
| Callsign | JBU2152 |
|---|---|
| Flight time | 2h 36m |
| Altitude | 35000 |
| Route | FATHE4 VIYAP Q87 JROSS ELLDE Q97 PAACK JAMIE Q133 JFK ROBUC3 |
| Aircraft | A321/M-SDE3FGHIRWY/LB1 |
Departure
| Time | 2026-05-05 14:18 |
|---|---|
| Airport | Orlando International Airport (KMCO) |
Arrival
| Time | 2026-05-05 16:55 |
|---|---|
| Airport | Boston Logan International Airport (KBOS) |
| Time | Latitude | Longitude | Altitude | Speed | Heading |
|---|---|---|---|---|---|
| 2026-05-05 13:43 | 28.41240 | -81.31561 | 94 ft | 0 kts | 180° |
| 2026-05-05 14:00 | 28.41242 | -81.31561 | 94 ft | 3 kts | 180° |
| 2026-05-05 14:01 | 28.41261 | -81.31561 | 94 ft | 3 kts | 180° |
| 2026-05-05 14:01 | 28.41280 | -81.31561 | 93 ft | 3 kts | 179° |
| 2026-05-05 14:01 | 28.41299 | -81.31565 | 94 ft | 3 kts | 149° |
| 2026-05-05 14:01 | 28.41314 | -81.31579 | 93 ft | 3 kts | 119° |
| 2026-05-05 14:02 | 28.41321 | -81.31600 | 93 ft | 3 kts | 90° |
| 2026-05-05 14:02 | 28.41318 | -81.31621 | 92 ft | 3 kts | 69° |
| 2026-05-05 14:02 | 28.41313 | -81.31642 | 94 ft | 3 kts | 91° |
| 2026-05-05 14:02 | 28.41313 | -81.31649 | 94 ft | 0 kts | 91° |
| 2026-05-05 14:06 | 28.41313 | -81.31640 | 94 ft | 3 kts | 90° |
| 2026-05-05 14:06 | 28.41321 | -81.31601 | 96 ft | 7 kts | 69° |
| 2026-05-05 14:06 | 28.41359 | -81.31556 | 94 ft | 9 kts | 28° |
| 2026-05-05 14:06 | 28.41432 | -81.31540 | 96 ft | 12 kts | 5° |
| 2026-05-05 14:07 | 28.41522 | -81.31530 | 96 ft | 13 kts | 5° |
| 2026-05-05 14:07 | 28.41608 | -81.31537 | 95 ft | 13 kts | 331° |
| 2026-05-05 14:07 | 28.41655 | -81.31626 | 98 ft | 12 kts | 294° |
| 2026-05-05 14:07 | 28.41671 | -81.31710 | 99 ft | 11 kts | 288° |
| 2026-05-05 14:08 | 28.41717 | -81.31786 | 98 ft | 13 kts | 334° |
| 2026-05-05 14:08 | 28.41809 | -81.31792 | 99 ft | 14 kts | 359° |
| 2026-05-05 14:08 | 28.41915 | -81.31793 | 99 ft | 16 kts | 359° |
| 2026-05-05 14:08 | 28.42026 | -81.31794 | 99 ft | 15 kts | 360° |
| 2026-05-05 14:09 | 28.42120 | -81.31789 | 98 ft | 13 kts | 5° |
| 2026-05-05 14:09 | 28.42206 | -81.31776 | 100 ft | 13 kts | 11° |
| 2026-05-05 14:09 | 28.42264 | -81.31747 | 99 ft | 7 kts | 67° |
| 2026-05-05 14:09 | 28.42271 | -81.31688 | 100 ft | 9 kts | 64° |
| 2026-05-05 14:10 | 28.42334 | -81.31666 | 100 ft | 10 kts | 7° |
| 2026-05-05 14:10 | 28.42349 | -81.31597 | 98 ft | 11 kts | 90° |
| 2026-05-05 14:10 | 28.42349 | -81.31492 | 97 ft | 15 kts | 89° |
| 2026-05-05 14:10 | 28.42351 | -81.31367 | 95 ft | 17 kts | 89° |
| 2026-05-05 14:11 | 28.42346 | -81.31230 | 94 ft | 18 kts | 95° |
| 2026-05-05 14:11 | 28.42326 | -81.31089 | 95 ft | 19 kts | 99° |
| 2026-05-05 14:11 | 28.42317 | -81.30944 | 94 ft | 18 kts | 87° |
| 2026-05-05 14:11 | 28.42326 | -81.30800 | 94 ft | 18 kts | 85° |
| 2026-05-05 14:12 | 28.42336 | -81.30661 | 97 ft | 17 kts | 85° |
| 2026-05-05 14:12 | 28.42346 | -81.30525 | 94 ft | 18 kts | 85° |
| 2026-05-05 14:12 | 28.42354 | -81.30382 | 94 ft | 18 kts | 87° |
| 2026-05-05 14:12 | 28.42359 | -81.30240 | 96 ft | 18 kts | 89° |
| 2026-05-05 14:13 | 28.42360 | -81.30098 | 94 ft | 18 kts | 89° |
| 2026-05-05 14:13 | 28.42362 | -81.29954 | 94 ft | 18 kts | 89° |
| 2026-05-05 14:13 | 28.42362 | -81.29828 | 95 ft | 13 kts | 94° |
| 2026-05-05 14:13 | 28.42289 | -81.29793 | 96 ft | 14 kts | 179° |
| 2026-05-05 14:14 | 28.42169 | -81.29792 | 95 ft | 21 kts | 179° |
| 2026-05-05 14:14 | 28.42017 | -81.29790 | 96 ft | 22 kts | 179° |
| 2026-05-05 14:14 | 28.41865 | -81.29789 | 96 ft | 22 kts | 179° |
| 2026-05-05 14:14 | 28.41712 | -81.29787 | 96 ft | 22 kts | 179° |
| 2026-05-05 14:15 | 28.41559 | -81.29786 | 94 ft | 22 kts | 179° |
| 2026-05-05 14:15 | 28.41405 | -81.29784 | 95 ft | 22 kts | 179° |
| 2026-05-05 14:15 | 28.41251 | -81.29783 | 96 ft | 22 kts | 179° |
| 2026-05-05 14:15 | 28.41096 | -81.29781 | 95 ft | 22 kts | 179° |
| 2026-05-05 14:16 | 28.40942 | -81.29779 | 97 ft | 21 kts | 179° |
| 2026-05-05 14:16 | 28.40840 | -81.29771 | 96 ft | 13 kts | 154° |
| 2026-05-05 14:16 | 28.40820 | -81.29675 | 97 ft | 13 kts | 89° |
| 2026-05-05 14:16 | 28.40823 | -81.29575 | 93 ft | 9 kts | 76° |
| 2026-05-05 14:17 | 28.40862 | -81.29558 | 94 ft | 7 kts | 358° |
| 2026-05-05 14:17 | 28.40946 | -81.29559 | 95 ft | 30 kts | 359° |
| 2026-05-05 14:17 | 28.41405 | -81.29564 | 99 ft | 100 kts | 359° |
| 2026-05-05 14:17 | 28.42302 | -81.29574 | 96 ft | 156 kts | 359° |
| 2026-05-05 14:18 | 28.43506 | -81.29594 | 354 ft | 178 kts | 2° |
| 2026-05-05 14:18 | 28.44727 | -81.29526 | 1051 ft | 174 kts | 15° |
| 2026-05-05 14:18 | 28.45823 | -81.29002 | 1701 ft | 170 kts | 33° |
| 2026-05-05 14:18 | 28.46885 | -81.28316 | 2079 ft | 184 kts | 33° |
| 2026-05-05 14:19 | 28.48060 | -81.27548 | 2217 ft | 207 kts | 32° |
| 2026-05-05 14:19 | 28.49375 | -81.26685 | 2351 ft | 230 kts | 32° |
| 2026-05-05 14:19 | 28.50842 | -81.25743 | 2648 ft | 252 kts | 27° |
| 2026-05-05 14:19 | 28.52560 | -81.25246 | 3297 ft | 260 kts | 5° |
| 2026-05-05 14:20 | 28.54372 | -81.25124 | 4058 ft | 262 kts | 4° |
| 2026-05-05 14:20 | 28.56209 | -81.25111 | 4746 ft | 266 kts | 358° |
| 2026-05-05 14:20 | 28.58077 | -81.25185 | 5399 ft | 271 kts | 355° |
| 2026-05-05 14:20 | 28.59960 | -81.25433 | 6084 ft | 274 kts | 350° |
| 2026-05-05 14:21 | 28.61856 | -81.25741 | 6775 ft | 277 kts | 349° |
| 2026-05-05 14:21 | 28.63774 | -81.26054 | 7443 ft | 280 kts | 350° |
| 2026-05-05 14:21 | 28.65719 | -81.26343 | 8113 ft | 283 kts | 351° |
| 2026-05-05 14:21 | 28.67684 | -81.26617 | 8779 ft | 286 kts | 351° |
| 2026-05-05 14:22 | 28.69675 | -81.26888 | 9436 ft | 290 kts | 351° |
| 2026-05-05 14:22 | 28.71689 | -81.27158 | 10097 ft | 293 kts | 351° |
| 2026-05-05 14:22 | 28.73755 | -81.27434 | 10444 ft | 308 kts | 351° |
| 2026-05-05 14:22 | 28.75940 | -81.27732 | 10689 ft | 325 kts | 351° |
| 2026-05-05 14:23 | 28.78246 | -81.28049 | 10933 ft | 341 kts | 351° |
| 2026-05-05 14:23 | 28.80654 | -81.28383 | 11173 ft | 357 kts | 351° |
| 2026-05-05 14:23 | 28.83163 | -81.28728 | 11531 ft | 367 kts | 351° |
| 2026-05-05 14:23 | 28.85720 | -81.29048 | 12087 ft | 372 kts | 352° |
| 2026-05-05 14:24 | 28.88312 | -81.29296 | 12684 ft | 375 kts | 353° |
| 2026-05-05 14:24 | 28.90925 | -81.29504 | 13286 ft | 378 kts | 353° |
| 2026-05-05 14:24 | 28.93559 | -81.29697 | 13891 ft | 381 kts | 353° |
| 2026-05-05 14:24 | 28.96211 | -81.29895 | 14419 ft | 383 kts | 353° |
| 2026-05-05 14:25 | 28.98884 | -81.30081 | 14969 ft | 386 kts | 353° |
| 2026-05-05 14:25 | 29.01576 | -81.30247 | 15526 ft | 388 kts | 353° |
| 2026-05-05 14:25 | 29.04283 | -81.30399 | 16078 ft | 391 kts | 353° |
| 2026-05-05 14:25 | 29.07010 | -81.30546 | 16632 ft | 393 kts | 353° |
| 2026-05-05 14:26 | 29.09749 | -81.30692 | 17184 ft | 395 kts | 353° |
| 2026-05-05 14:26 | 29.12466 | -81.30843 | 17716 ft | 398 kts | 353° |
| 2026-05-05 14:26 | 29.15239 | -81.31003 | 18267 ft | 400 kts | 353° |
| 2026-05-05 14:26 | 29.18028 | -81.31165 | 18754 ft | 402 kts | 353° |
| 2026-05-05 14:27 | 29.20829 | -81.31331 | 19233 ft | 404 kts | 352° |
| 2026-05-05 14:27 | 29.23638 | -81.31498 | 19714 ft | 405 kts | 352° |
| 2026-05-05 14:27 | 29.26453 | -81.31662 | 20186 ft | 406 kts | 352° |
| 2026-05-05 14:27 | 29.29276 | -81.31827 | 20646 ft | 407 kts | 352° |
| 2026-05-05 14:28 | 29.32103 | -81.31993 | 21107 ft | 408 kts | 352° |
| 2026-05-05 14:28 | 29.34940 | -81.32161 | 21569 ft | 408 kts | 351° |
| 2026-05-05 14:28 | 29.37779 | -81.32331 | 22015 ft | 409 kts | 351° |
| 2026-05-05 14:28 | 29.40630 | -81.32503 | 22444 ft | 411 kts | 351° |
| 2026-05-05 14:29 | 29.43486 | -81.32674 | 22864 ft | 412 kts | 351° |
| 2026-05-05 14:29 | 29.46353 | -81.32840 | 23287 ft | 413 kts | 351° |
| 2026-05-05 14:29 | 29.49227 | -81.33006 | 23698 ft | 414 kts | 351° |
| 2026-05-05 14:29 | 29.52108 | -81.33173 | 24041 ft | 415 kts | 350° |
| 2026-05-05 14:30 | 29.54995 | -81.33344 | 24395 ft | 416 kts | 350° |
| 2026-05-05 14:30 | 29.57887 | -81.33515 | 24756 ft | 417 kts | 351° |
| 2026-05-05 14:30 | 29.60786 | -81.33684 | 25112 ft | 417 kts | 351° |
| 2026-05-05 14:30 | 29.63686 | -81.33852 | 25461 ft | 418 kts | 351° |
| 2026-05-05 14:31 | 29.66592 | -81.34023 | 25811 ft | 419 kts | 351° |
| 2026-05-05 14:31 | 29.69504 | -81.34196 | 26143 ft | 419 kts | 351° |
| 2026-05-05 14:31 | 29.72419 | -81.34370 | 26476 ft | 420 kts | 351° |
| 2026-05-05 14:31 | 29.74352 | -81.34486 | 26699 ft | 420 kts | 351° |
| 2026-05-05 14:32 | 29.77276 | -81.34660 | 27026 ft | 421 kts | 351° |
| 2026-05-05 14:32 | 29.80202 | -81.34834 | 27367 ft | 422 kts | 351° |
| 2026-05-05 14:32 | 29.83140 | -81.35007 | 27687 ft | 423 kts | 351° |
| 2026-05-05 14:32 | 29.86081 | -81.35182 | 28016 ft | 424 kts | 351° |
| 2026-05-05 14:33 | 29.89025 | -81.35356 | 28334 ft | 424 kts | 351° |
| 2026-05-05 14:33 | 29.91971 | -81.35530 | 28726 ft | 423 kts | 351° |
| 2026-05-05 14:33 | 29.94899 | -81.35702 | 29188 ft | 420 kts | 351° |
| 2026-05-05 14:33 | 29.97805 | -81.35873 | 29644 ft | 417 kts | 350° |
| 2026-05-05 14:34 | 30.00693 | -81.36044 | 30102 ft | 414 kts | 350° |
| 2026-05-05 14:34 | 30.03558 | -81.36215 | 30498 ft | 411 kts | 350° |
| 2026-05-05 14:34 | 30.06406 | -81.36386 | 30889 ft | 408 kts | 350° |
| 2026-05-05 14:34 | 30.09229 | -81.36555 | 31285 ft | 405 kts | 350° |
| 2026-05-05 14:35 | 30.12028 | -81.36722 | 31682 ft | 401 kts | 350° |
| 2026-05-05 14:35 | 30.14802 | -81.36886 | 32079 ft | 398 kts | 350° |
| 2026-05-05 14:35 | 30.17554 | -81.37047 | 32471 ft | 394 kts | 349° |
| 2026-05-05 14:35 | 30.20282 | -81.37209 | 32860 ft | 391 kts | 349° |
| 2026-05-05 14:36 | 30.22988 | -81.37371 | 33249 ft | 388 kts | 349° |
| 2026-05-05 14:36 | 30.25672 | -81.37534 | 33629 ft | 385 kts | 349° |
| 2026-05-05 14:36 | 30.28333 | -81.37696 | 34005 ft | 382 kts | 349° |
| 2026-05-05 14:36 | 30.30973 | -81.37854 | 34335 ft | 379 kts | 349° |
| 2026-05-05 14:37 | 30.33596 | -81.38011 | 34611 ft | 377 kts | 349° |
| 2026-05-05 14:37 | 30.36213 | -81.38170 | 34858 ft | 376 kts | 349° |
| 2026-05-05 14:37 | 30.38822 | -81.38328 | 35060 ft | 376 kts | 349° |
| 2026-05-05 14:37 | 30.41433 | -81.38486 | 35123 ft | 376 kts | 349° |
| 2026-05-05 14:38 | 30.46649 | -81.38794 | 35130 ft | 375 kts | 349° |
| 2026-05-05 14:38 | 30.51857 | -81.39107 | 35140 ft | 375 kts | 349° |
| 2026-05-05 14:39 | 30.57059 | -81.39427 | 35139 ft | 374 kts | 349° |
| 2026-05-05 14:39 | 30.62264 | -81.39745 | 35139 ft | 374 kts | 349° |
| 2026-05-05 14:40 | 30.67470 | -81.40059 | 35150 ft | 375 kts | 349° |
| 2026-05-05 14:40 | 30.72680 | -81.40368 | 35152 ft | 375 kts | 349° |
| 2026-05-05 14:41 | 30.77895 | -81.40676 | 35154 ft | 375 kts | 349° |
| 2026-05-05 14:41 | 30.83110 | -81.40986 | 35160 ft | 375 kts | 349° |
| 2026-05-05 14:42 | 30.88288 | -81.41302 | 35155 ft | 375 kts | 349° |
| 2026-05-05 14:42 | 30.93493 | -81.41629 | 35148 ft | 375 kts | 349° |
| 2026-05-05 14:43 | 30.98698 | -81.41951 | 35148 ft | 375 kts | 349° |
| 2026-05-05 14:43 | 31.03907 | -81.42265 | 35149 ft | 375 kts | 349° |
| 2026-05-05 14:44 | 31.09115 | -81.42574 | 35149 ft | 375 kts | 349° |
| 2026-05-05 14:44 | 31.14315 | -81.42893 | 35152 ft | 374 kts | 349° |
| 2026-05-05 14:45 | 31.19516 | -81.43210 | 35151 ft | 374 kts | 349° |
| 2026-05-05 14:45 | 31.24747 | -81.43217 | 35169 ft | 386 kts | 360° |
| 2026-05-05 14:46 | 31.27385 | -81.42401 | 35170 ft | 401 kts | 11° |
| 2026-05-05 14:46 | 31.29959 | -81.41043 | 35173 ft | 407 kts | 13° |
| 2026-05-05 14:46 | 31.35089 | -81.38235 | 35171 ft | 407 kts | 13° |
| 2026-05-05 14:47 | 31.40222 | -81.35435 | 35171 ft | 407 kts | 13° |
| 2026-05-05 14:47 | 31.45358 | -81.32645 | 35167 ft | 407 kts | 13° |
| 2026-05-05 14:48 | 31.50493 | -81.29861 | 35163 ft | 406 kts | 13° |
| 2026-05-05 14:48 | 31.55622 | -81.27068 | 35165 ft | 406 kts | 13° |
| 2026-05-05 14:49 | 31.60744 | -81.24281 | 35154 ft | 406 kts | 13° |
| 2026-05-05 14:49 | 31.65862 | -81.21493 | 35158 ft | 405 kts | 13° |
| 2026-05-05 14:50 | 31.70973 | -81.18702 | 35153 ft | 405 kts | 13° |
| 2026-05-05 14:50 | 31.76083 | -81.15903 | 35147 ft | 405 kts | 13° |
| 2026-05-05 14:51 | 31.81185 | -81.13105 | 35141 ft | 404 kts | 13° |
| 2026-05-05 14:51 | 31.86287 | -81.10314 | 35140 ft | 404 kts | 13° |
| 2026-05-05 14:52 | 31.91388 | -81.07519 | 35137 ft | 404 kts | 13° |
| 2026-05-05 14:52 | 31.96479 | -81.04717 | 35138 ft | 404 kts | 13° |
| 2026-05-05 14:53 | 32.01564 | -81.01908 | 35138 ft | 403 kts | 13° |
| 2026-05-05 14:53 | 32.06642 | -80.99080 | 35141 ft | 404 kts | 14° |
| 2026-05-05 14:54 | 32.11711 | -80.96236 | 35143 ft | 403 kts | 14° |
| 2026-05-05 14:54 | 32.16779 | -80.93388 | 35178 ft | 403 kts | 14° |
| 2026-05-05 14:55 | 32.21844 | -80.90547 | 35180 ft | 403 kts | 14° |
| 2026-05-05 14:55 | 32.26906 | -80.87702 | 35179 ft | 403 kts | 14° |
| 2026-05-05 14:56 | 32.31965 | -80.84856 | 35181 ft | 403 kts | 14° |
| 2026-05-05 14:56 | 32.37025 | -80.82004 | 35178 ft | 403 kts | 14° |
| 2026-05-05 14:57 | 32.42089 | -80.79154 | 35177 ft | 403 kts | 14° |
| 2026-05-05 14:57 | 32.47155 | -80.76305 | 35179 ft | 403 kts | 14° |
| 2026-05-05 14:58 | 32.52216 | -80.73446 | 35179 ft | 403 kts | 14° |
| 2026-05-05 14:58 | 32.57277 | -80.70580 | 35173 ft | 403 kts | 14° |
| 2026-05-05 14:59 | 32.62340 | -80.67713 | 35177 ft | 404 kts | 14° |
| 2026-05-05 14:59 | 32.67407 | -80.64829 | 35175 ft | 404 kts | 15° |
| 2026-05-05 15:00 | 32.71529 | -80.62119 | 35179 ft | 419 kts | 26° |
| 2026-05-05 15:00 | 32.76678 | -80.56576 | 35183 ft | 429 kts | 31° |
| 2026-05-05 15:01 | 32.81033 | -80.51717 | 35180 ft | 430 kts | 31° |
| 2026-05-05 15:01 | 32.85400 | -80.46854 | 35181 ft | 430 kts | 31° |
| 2026-05-05 15:02 | 32.89772 | -80.41988 | 35182 ft | 431 kts | 31° |
| 2026-05-05 15:02 | 32.94144 | -80.37107 | 35171 ft | 431 kts | 32° |
| 2026-05-05 15:03 | 32.98517 | -80.32214 | 35170 ft | 431 kts | 32° |
| 2026-05-05 15:03 | 33.02893 | -80.27318 | 35172 ft | 432 kts | 32° |
| 2026-05-05 15:04 | 33.07269 | -80.22417 | 35158 ft | 432 kts | 32° |
| 2026-05-05 15:04 | 33.11649 | -80.17505 | 35161 ft | 432 kts | 32° |
| 2026-05-05 15:05 | 33.18224 | -80.10115 | 35183 ft | 433 kts | 32° |
| 2026-05-05 15:06 | 33.22610 | -80.05172 | 35183 ft | 434 kts | 32° |
| 2026-05-05 15:06 | 33.27001 | -80.00220 | 35186 ft | 434 kts | 33° |
| 2026-05-05 15:07 | 33.31395 | -79.95263 | 35180 ft | 434 kts | 33° |
| 2026-05-05 15:07 | 33.35793 | -79.90299 | 35177 ft | 435 kts | 33° |
| 2026-05-05 15:08 | 33.40185 | -79.85314 | 35177 ft | 436 kts | 33° |
| 2026-05-05 15:08 | 33.44583 | -79.80316 | 35174 ft | 436 kts | 33° |
| 2026-05-05 15:09 | 33.48986 | -79.75315 | 35176 ft | 437 kts | 33° |
| 2026-05-05 15:09 | 33.53396 | -79.70306 | 35182 ft | 437 kts | 33° |
| 2026-05-05 15:10 | 33.57806 | -79.65284 | 35181 ft | 437 kts | 33° |
| 2026-05-05 15:10 | 33.62185 | -79.60280 | 35180 ft | 438 kts | 33° |
| 2026-05-05 15:11 | 33.66601 | -79.55230 | 35176 ft | 439 kts | 33° |
| 2026-05-05 15:11 | 33.71026 | -79.50164 | 35173 ft | 440 kts | 33° |
| 2026-05-05 15:12 | 33.75453 | -79.45090 | 35178 ft | 441 kts | 33° |
| 2026-05-05 15:12 | 33.79893 | -79.39993 | 35179 ft | 442 kts | 34° |
| 2026-05-05 15:13 | 33.84340 | -79.34886 | 35179 ft | 442 kts | 34° |
| 2026-05-05 15:13 | 33.88793 | -79.29766 | 35187 ft | 443 kts | 34° |
| 2026-05-05 15:14 | 33.93250 | -79.24623 | 35187 ft | 444 kts | 34° |
| 2026-05-05 15:14 | 33.97710 | -79.19471 | 35186 ft | 445 kts | 34° |
| 2026-05-05 15:15 | 34.02171 | -79.14308 | 35181 ft | 445 kts | 34° |
| 2026-05-05 15:15 | 34.06635 | -79.09136 | 35158 ft | 445 kts | 35° |
| 2026-05-05 15:16 | 34.11104 | -79.03952 | 35171 ft | 446 kts | 35° |
| 2026-05-05 15:16 | 34.14822 | -78.99635 | 35177 ft | 447 kts | 35° |
| 2026-05-05 15:17 | 34.20029 | -78.93578 | 35191 ft | 447 kts | 36° |
| 2026-05-05 15:17 | 34.24508 | -78.88348 | 35200 ft | 448 kts | 36° |
| 2026-05-05 15:18 | 34.28262 | -78.83954 | 35203 ft | 449 kts | 36° |
| 2026-05-05 15:18 | 34.32722 | -78.78744 | 35210 ft | 449 kts | 36° |
| 2026-05-05 15:19 | 34.37216 | -78.73493 | 35209 ft | 449 kts | 37° |
| 2026-05-05 15:19 | 34.41824 | -78.68432 | 35200 ft | 443 kts | 30° |
| 2026-05-05 15:20 | 34.46725 | -78.63907 | 35180 ft | 443 kts | 30° |
| 2026-05-05 15:20 | 34.51628 | -78.59381 | 35185 ft | 443 kts | 30° |
| 2026-05-05 15:21 | 34.56539 | -78.54844 | 35184 ft | 444 kts | 31° |
| 2026-05-05 15:21 | 34.61456 | -78.50292 | 35183 ft | 445 kts | 31° |
| 2026-05-05 15:22 | 34.66377 | -78.45720 | 35180 ft | 446 kts | 31° |
| 2026-05-05 15:22 | 34.71302 | -78.41140 | 35175 ft | 446 kts | 31° |
| 2026-05-05 15:23 | 34.76235 | -78.36547 | 35166 ft | 447 kts | 31° |
| 2026-05-05 15:23 | 34.81167 | -78.31943 | 35171 ft | 447 kts | 31° |
| 2026-05-05 15:24 | 34.86106 | -78.27327 | 35174 ft | 448 kts | 31° |
| 2026-05-05 15:24 | 34.91046 | -78.22707 | 35177 ft | 448 kts | 32° |
| 2026-05-05 15:25 | 34.95989 | -78.18072 | 35175 ft | 449 kts | 32° |
| 2026-05-05 15:25 | 35.00937 | -78.13423 | 35185 ft | 449 kts | 32° |
| 2026-05-05 15:26 | 35.05894 | -78.08775 | 35180 ft | 450 kts | 32° |
| 2026-05-05 15:26 | 35.10817 | -78.04138 | 35176 ft | 450 kts | 32° |
| 2026-05-05 15:27 | 35.15773 | -77.99453 | 35169 ft | 451 kts | 32° |
| 2026-05-05 15:27 | 35.20734 | -77.94768 | 35180 ft | 451 kts | 32° |
| 2026-05-05 15:28 | 35.25703 | -77.90078 | 35180 ft | 451 kts | 32° |
| 2026-05-05 15:28 | 35.30671 | -77.85371 | 35182 ft | 452 kts | 32° |
| 2026-05-05 15:29 | 35.35643 | -77.80650 | 35176 ft | 452 kts | 32° |
| 2026-05-05 15:29 | 35.40621 | -77.75921 | 35170 ft | 453 kts | 32° |
| 2026-05-05 15:30 | 35.45602 | -77.71182 | 35171 ft | 454 kts | 33° |
| 2026-05-05 15:30 | 35.50589 | -77.66426 | 35169 ft | 454 kts | 33° |
| 2026-05-05 15:31 | 35.55550 | -77.61684 | 35155 ft | 455 kts | 33° |
| 2026-05-05 15:31 | 35.60552 | -77.56902 | 35151 ft | 456 kts | 33° |
| 2026-05-05 15:32 | 35.65565 | -77.52107 | 35152 ft | 457 kts | 33° |
| 2026-05-05 15:32 | 35.70578 | -77.47296 | 35154 ft | 457 kts | 33° |
| 2026-05-05 15:33 | 35.75593 | -77.42472 | 35158 ft | 458 kts | 33° |
| 2026-05-05 15:33 | 35.80608 | -77.37639 | 35153 ft | 458 kts | 33° |
| 2026-05-05 15:34 | 35.85621 | -77.32795 | 35161 ft | 458 kts | 33° |
| 2026-05-05 15:34 | 35.90640 | -77.27940 | 35164 ft | 459 kts | 33° |
| 2026-05-05 15:35 | 35.95877 | -77.23528 | 35164 ft | 454 kts | 27° |
| 2026-05-05 15:35 | 36.01279 | -77.19471 | 35160 ft | 455 kts | 27° |
| 2026-05-05 15:36 | 36.06681 | -77.15398 | 35158 ft | 455 kts | 27° |
| 2026-05-05 15:36 | 36.12049 | -77.11341 | 35150 ft | 455 kts | 27° |
| 2026-05-05 15:37 | 36.17452 | -77.07246 | 35149 ft | 455 kts | 27° |
| 2026-05-05 15:37 | 36.22856 | -77.03151 | 35152 ft | 455 kts | 27° |
| 2026-05-05 15:38 | 36.28254 | -76.99057 | 35147 ft | 455 kts | 27° |
| 2026-05-05 15:38 | 36.33649 | -76.94946 | 35142 ft | 455 kts | 27° |
| 2026-05-05 15:39 | 36.39042 | -76.90833 | 35138 ft | 455 kts | 27° |
| 2026-05-05 15:39 | 36.44442 | -76.86716 | 35130 ft | 455 kts | 27° |
| 2026-05-05 15:40 | 36.49839 | -76.82597 | 35129 ft | 455 kts | 27° |
| 2026-05-05 15:40 | 36.55233 | -76.78464 | 35128 ft | 455 kts | 27° |
| 2026-05-05 15:41 | 36.60622 | -76.74320 | 35135 ft | 455 kts | 27° |
| 2026-05-05 15:41 | 36.66012 | -76.70178 | 35140 ft | 455 kts | 27° |
| 2026-05-05 15:42 | 36.71402 | -76.66033 | 35135 ft | 455 kts | 27° |
| 2026-05-05 15:42 | 36.76789 | -76.61876 | 35136 ft | 455 kts | 27° |
| 2026-05-05 15:43 | 36.82176 | -76.57712 | 35125 ft | 456 kts | 27° |
| 2026-05-05 15:43 | 36.87599 | -76.53611 | 35126 ft | 455 kts | 26° |
| 2026-05-05 15:44 | 36.93082 | -76.49642 | 35124 ft | 455 kts | 26° |
| 2026-05-05 15:44 | 36.98574 | -76.45694 | 35091 ft | 456 kts | 26° |
| 2026-05-05 15:45 | 37.04066 | -76.41705 | 35093 ft | 456 kts | 26° |
| 2026-05-05 15:45 | 37.09510 | -76.37715 | 35093 ft | 457 kts | 26° |
| 2026-05-05 15:46 | 37.14991 | -76.33684 | 35092 ft | 457 kts | 26° |
| 2026-05-05 15:46 | 37.20476 | -76.29650 | 35093 ft | 457 kts | 26° |
| 2026-05-05 15:47 | 37.25960 | -76.25612 | 35094 ft | 457 kts | 26° |
| 2026-05-05 15:47 | 37.31448 | -76.21559 | 35094 ft | 458 kts | 26° |
| 2026-05-05 15:48 | 37.36939 | -76.17501 | 35092 ft | 458 kts | 26° |
| 2026-05-05 15:48 | 37.42432 | -76.13445 | 35092 ft | 458 kts | 26° |
| 2026-05-05 15:49 | 37.47928 | -76.09382 | 35089 ft | 458 kts | 27° |
| 2026-05-05 15:49 | 37.53415 | -76.05305 | 35087 ft | 458 kts | 27° |
| 2026-05-05 15:50 | 37.58897 | -76.01219 | 35085 ft | 458 kts | 27° |
| 2026-05-05 15:50 | 37.64384 | -75.97127 | 35086 ft | 458 kts | 27° |
| 2026-05-05 15:51 | 37.69873 | -75.93036 | 35078 ft | 458 kts | 27° |
| 2026-05-05 15:51 | 37.75361 | -75.88942 | 35078 ft | 458 kts | 27° |
| 2026-05-05 15:52 | 37.80847 | -75.84829 | 35076 ft | 459 kts | 27° |
| 2026-05-05 15:52 | 37.86336 | -75.80714 | 35075 ft | 458 kts | 27° |
| 2026-05-05 15:53 | 37.91819 | -75.76593 | 35076 ft | 458 kts | 27° |
| 2026-05-05 15:53 | 37.97304 | -75.72463 | 35080 ft | 458 kts | 27° |
| 2026-05-05 15:54 | 38.02749 | -75.68353 | 35075 ft | 459 kts | 27° |
| 2026-05-05 15:54 | 38.08236 | -75.64218 | 35071 ft | 459 kts | 27° |
| 2026-05-05 15:55 | 38.13722 | -75.60072 | 35059 ft | 459 kts | 27° |
| 2026-05-05 15:55 | 38.19200 | -75.55912 | 35056 ft | 459 kts | 27° |
| 2026-05-05 15:56 | 38.24682 | -75.51746 | 35051 ft | 459 kts | 27° |
| 2026-05-05 15:56 | 38.30165 | -75.47584 | 35051 ft | 459 kts | 27° |
| 2026-05-05 15:57 | 38.35641 | -75.43410 | 35050 ft | 459 kts | 27° |
| 2026-05-05 15:57 | 38.41119 | -75.39228 | 35045 ft | 459 kts | 27° |
| 2026-05-05 15:58 | 38.46596 | -75.35042 | 35040 ft | 459 kts | 27° |
| 2026-05-05 15:58 | 38.52075 | -75.30840 | 35030 ft | 459 kts | 28° |
| 2026-05-05 15:59 | 38.57551 | -75.26621 | 35032 ft | 460 kts | 28° |
| 2026-05-05 15:59 | 38.62998 | -75.22434 | 35032 ft | 460 kts | 27° |
| 2026-05-05 16:00 | 38.68493 | -75.18213 | 35028 ft | 461 kts | 28° |
| 2026-05-05 16:00 | 38.73988 | -75.13976 | 35025 ft | 461 kts | 28° |
| 2026-05-05 16:01 | 38.79487 | -75.09727 | 35024 ft | 462 kts | 28° |
| 2026-05-05 16:01 | 38.84987 | -75.05465 | 35024 ft | 462 kts | 28° |
| 2026-05-05 16:02 | 38.90488 | -75.01195 | 35029 ft | 462 kts | 28° |
| 2026-05-05 16:02 | 38.95992 | -74.96912 | 35030 ft | 463 kts | 28° |
| 2026-05-05 16:03 | 39.01499 | -74.92626 | 35029 ft | 463 kts | 28° |
| 2026-05-05 16:03 | 39.07013 | -74.88325 | 35031 ft | 463 kts | 28° |
| 2026-05-05 16:04 | 39.12527 | -74.84014 | 35015 ft | 464 kts | 28° |
| 2026-05-05 16:04 | 39.18046 | -74.79693 | 35019 ft | 464 kts | 28° |
| 2026-05-05 16:05 | 39.23566 | -74.75360 | 35030 ft | 465 kts | 28° |
| 2026-05-05 16:05 | 39.29088 | -74.71016 | 35011 ft | 465 kts | 28° |
| 2026-05-05 16:06 | 39.34608 | -74.66668 | 35018 ft | 465 kts | 28° |
| 2026-05-05 16:06 | 39.40132 | -74.62314 | 35012 ft | 465 kts | 28° |
| 2026-05-05 16:07 | 39.45620 | -74.57966 | 35016 ft | 466 kts | 28° |
| 2026-05-05 16:07 | 39.51150 | -74.53581 | 35008 ft | 466 kts | 28° |
| 2026-05-05 16:08 | 39.56679 | -74.49200 | 35014 ft | 466 kts | 28° |
| 2026-05-05 16:08 | 39.62210 | -74.44802 | 35008 ft | 466 kts | 28° |
| 2026-05-05 16:09 | 39.67740 | -74.40400 | 35015 ft | 467 kts | 28° |
| 2026-05-05 16:09 | 39.73271 | -74.35985 | 34993 ft | 467 kts | 28° |
| 2026-05-05 16:10 | 39.78802 | -74.31559 | 34995 ft | 467 kts | 28° |
| 2026-05-05 16:10 | 39.83439 | -74.27846 | 34987 ft | 467 kts | 28° |
| 2026-05-05 16:11 | 39.88971 | -74.23416 | 34991 ft | 467 kts | 28° |
| 2026-05-05 16:12 | 39.99994 | -74.14542 | 34992 ft | 467 kts | 28° |
| 2026-05-05 16:13 | 40.13822 | -74.03371 | 34983 ft | 468 kts | 29° |
| 2026-05-05 16:13 | 40.19352 | -73.98884 | 34923 ft | 469 kts | 29° |
| 2026-05-05 16:14 | 40.24884 | -73.94379 | 34298 ft | 468 kts | 29° |
| 2026-05-05 16:14 | 40.30421 | -73.89873 | 33641 ft | 469 kts | 29° |
| 2026-05-05 16:15 | 40.35973 | -73.85358 | 32960 ft | 470 kts | 29° |
| 2026-05-05 16:15 | 40.41533 | -73.80822 | 32277 ft | 471 kts | 29° |
| 2026-05-05 16:16 | 40.47101 | -73.76266 | 31619 ft | 472 kts | 29° |
| 2026-05-05 16:16 | 40.52669 | -73.71697 | 30967 ft | 473 kts | 29° |
| 2026-05-05 16:17 | 40.58245 | -73.67108 | 30343 ft | 473 kts | 29° |
| 2026-05-05 16:17 | 40.61034 | -73.64807 | 30021 ft | 473 kts | 29° |
| 2026-05-05 16:18 | 40.66620 | -73.60187 | 29289 ft | 474 kts | 29° |
| 2026-05-05 16:18 | 40.69417 | -73.57880 | 28935 ft | 475 kts | 29° |
| 2026-05-05 16:18 | 40.75003 | -73.53273 | 28224 ft | 472 kts | 29° |
| 2026-05-05 16:19 | 40.77777 | -73.50976 | 27885 ft | 470 kts | 29° |
| 2026-05-05 16:19 | 40.80535 | -73.48684 | 27544 ft | 467 kts | 29° |
| 2026-05-05 16:19 | 40.85850 | -73.43805 | 26941 ft | 466 kts | 39° |
| 2026-05-05 16:20 | 40.90247 | -73.37550 | 26958 ft | 469 kts | 46° |
| 2026-05-05 16:20 | 40.94595 | -73.31133 | 26957 ft | 468 kts | 46° |
| 2026-05-05 16:21 | 40.98947 | -73.24716 | 26943 ft | 468 kts | 46° |
| 2026-05-05 16:22 | 41.05441 | -73.15060 | 26944 ft | 468 kts | 46° |
| 2026-05-05 16:22 | 41.09763 | -73.08616 | 26558 ft | 466 kts | 46° |
| 2026-05-05 16:23 | 41.14044 | -73.02230 | 25307 ft | 461 kts | 46° |
| 2026-05-05 16:23 | 41.16168 | -72.99054 | 24630 ft | 459 kts | 46° |
| 2026-05-05 16:23 | 41.20347 | -72.92675 | 23325 ft | 456 kts | 51° |
| 2026-05-05 16:24 | 41.22036 | -72.89157 | 23026 ft | 448 kts | 60° |
| 2026-05-05 16:24 | 41.23443 | -72.85484 | 22907 ft | 444 kts | 61° |
| 2026-05-05 16:24 | 41.26255 | -72.78170 | 22953 ft | 444 kts | 61° |
| 2026-05-05 16:25 | 41.27660 | -72.74516 | 22940 ft | 444 kts | 61° |
| 2026-05-05 16:25 | 41.30459 | -72.67211 | 22949 ft | 443 kts | 61° |
| 2026-05-05 16:25 | 41.31855 | -72.63547 | 22955 ft | 443 kts | 61° |
| 2026-05-05 16:26 | 41.34616 | -72.56278 | 22956 ft | 443 kts | 62° |
| 2026-05-05 16:26 | 41.37388 | -72.48944 | 22951 ft | 444 kts | 62° |
| 2026-05-05 16:27 | 41.38775 | -72.45276 | 22956 ft | 443 kts | 62° |
| 2026-05-05 16:27 | 41.40161 | -72.41606 | 22953 ft | 443 kts | 62° |
| 2026-05-05 16:27 | 41.41546 | -72.37938 | 22952 ft | 444 kts | 62° |
| 2026-05-05 16:27 | 41.42934 | -72.34262 | 22951 ft | 444 kts | 62° |
| 2026-05-05 16:28 | 41.44324 | -72.30587 | 22949 ft | 444 kts | 62° |
| 2026-05-05 16:28 | 41.45714 | -72.26910 | 22840 ft | 445 kts | 62° |
| 2026-05-05 16:28 | 41.47092 | -72.23231 | 22581 ft | 443 kts | 62° |
| 2026-05-05 16:28 | 41.48460 | -72.19558 | 22311 ft | 441 kts | 62° |
| 2026-05-05 16:29 | 41.49816 | -72.15888 | 22055 ft | 440 kts | 63° |
| 2026-05-05 16:29 | 41.51156 | -72.12225 | 21794 ft | 439 kts | 63° |
| 2026-05-05 16:29 | 41.52488 | -72.08565 | 21531 ft | 438 kts | 63° |
| 2026-05-05 16:29 | 41.53817 | -72.04917 | 21266 ft | 437 kts | 63° |
| 2026-05-05 16:30 | 41.55142 | -72.01275 | 21016 ft | 435 kts | 63° |
| 2026-05-05 16:30 | 41.56425 | -71.97617 | 20737 ft | 435 kts | 65° |
| 2026-05-05 16:30 | 41.57602 | -71.93908 | 20480 ft | 434 kts | 67° |
| 2026-05-05 16:30 | 41.58704 | -71.90164 | 20250 ft | 433 kts | 68° |
| 2026-05-05 16:31 | 41.59772 | -71.86409 | 20003 ft | 431 kts | 68° |
| 2026-05-05 16:31 | 41.60827 | -71.82668 | 19763 ft | 430 kts | 69° |
| 2026-05-05 16:31 | 41.61889 | -71.78935 | 19509 ft | 429 kts | 68° |
| 2026-05-05 16:31 | 41.62950 | -71.75280 | 19258 ft | 428 kts | 68° |
| 2026-05-05 16:32 | 41.64034 | -71.71591 | 19028 ft | 424 kts | 68° |
| 2026-05-05 16:32 | 41.65122 | -71.67919 | 18782 ft | 414 kts | 68° |
| 2026-05-05 16:32 | 41.66155 | -71.64429 | 18547 ft | 404 kts | 68° |
| 2026-05-05 16:32 | 41.67188 | -71.60929 | 18310 ft | 395 kts | 68° |
| 2026-05-05 16:33 | 41.68182 | -71.57551 | 18041 ft | 386 kts | 68° |
| 2026-05-05 16:33 | 41.69150 | -71.54243 | 17555 ft | 377 kts | 68° |
| 2026-05-05 16:33 | 41.70091 | -71.51017 | 17084 ft | 370 kts | 68° |
| 2026-05-05 16:33 | 41.71025 | -71.47815 | 16610 ft | 369 kts | 68° |
| 2026-05-05 16:34 | 41.71957 | -71.44621 | 16153 ft | 367 kts | 67° |
| 2026-05-05 16:34 | 41.73065 | -71.41562 | 15696 ft | 364 kts | 58° |
| 2026-05-05 16:34 | 41.74331 | -71.38629 | 15243 ft | 363 kts | 58° |
| 2026-05-05 16:34 | 41.75587 | -71.35705 | 14805 ft | 362 kts | 58° |
| 2026-05-05 16:35 | 41.76837 | -71.32783 | 14374 ft | 361 kts | 58° |
| 2026-05-05 16:35 | 41.78082 | -71.29863 | 13944 ft | 360 kts | 58° |
| 2026-05-05 16:35 | 41.79317 | -71.26963 | 13543 ft | 358 kts | 58° |
| 2026-05-05 16:35 | 41.80546 | -71.24078 | 13115 ft | 355 kts | 58° |
| 2026-05-05 16:36 | 41.81762 | -71.21221 | 12692 ft | 349 kts | 58° |
| 2026-05-05 16:36 | 41.82945 | -71.18431 | 12317 ft | 341 kts | 59° |
| 2026-05-05 16:36 | 41.84088 | -71.15733 | 12060 ft | 334 kts | 58° |
| 2026-05-05 16:36 | 41.85229 | -71.13042 | 11938 ft | 332 kts | 58° |
| 2026-05-05 16:37 | 41.86373 | -71.10361 | 11809 ft | 331 kts | 58° |
| 2026-05-05 16:37 | 41.87526 | -71.07687 | 11690 ft | 331 kts | 58° |
| 2026-05-05 16:37 | 41.88684 | -71.05021 | 11573 ft | 330 kts | 58° |
| 2026-05-05 16:37 | 41.89842 | -71.02360 | 11492 ft | 330 kts | 58° |
| 2026-05-05 16:38 | 41.91000 | -70.99698 | 11361 ft | 330 kts | 58° |
| 2026-05-05 16:38 | 41.92150 | -70.97038 | 11210 ft | 329 kts | 58° |
| 2026-05-05 16:38 | 41.93291 | -70.94384 | 11053 ft | 328 kts | 58° |
| 2026-05-05 16:38 | 41.94430 | -70.91727 | 10907 ft | 328 kts | 58° |
| 2026-05-05 16:39 | 41.95569 | -70.89073 | 10750 ft | 328 kts | 58° |
| 2026-05-05 16:39 | 41.96707 | -70.86424 | 10610 ft | 327 kts | 58° |
| 2026-05-05 16:39 | 41.97841 | -70.83777 | 10465 ft | 327 kts | 58° |
| 2026-05-05 16:39 | 41.98975 | -70.81129 | 10316 ft | 327 kts | 58° |
| 2026-05-05 16:40 | 42.00110 | -70.78487 | 10176 ft | 326 kts | 58° |
| 2026-05-05 16:40 | 42.01328 | -70.75931 | 9994 ft | 323 kts | 49° |
| 2026-05-05 16:40 | 42.02804 | -70.73654 | 9659 ft | 322 kts | 45° |
| 2026-05-05 16:40 | 42.04299 | -70.71425 | 9330 ft | 320 kts | 45° |
| 2026-05-05 16:41 | 42.05785 | -70.69205 | 9041 ft | 319 kts | 45° |
| 2026-05-05 16:41 | 42.07261 | -70.66994 | 8733 ft | 317 kts | 45° |
| 2026-05-05 16:41 | 42.08727 | -70.64792 | 8435 ft | 315 kts | 45° |
| 2026-05-05 16:41 | 42.10326 | -70.62818 | 8130 ft | 309 kts | 30° |
| 2026-05-05 16:42 | 42.12175 | -70.61438 | 7839 ft | 301 kts | 15° |
| 2026-05-05 16:42 | 42.14157 | -70.60681 | 7556 ft | 294 kts | 4° |
| 2026-05-05 16:42 | 42.16131 | -70.60144 | 7285 ft | 293 kts | 5° |
| 2026-05-05 16:42 | 42.18127 | -70.59593 | 7005 ft | 292 kts | 5° |
| 2026-05-05 16:43 | 42.20112 | -70.59041 | 6731 ft | 291 kts | 5° |
| 2026-05-05 16:43 | 42.22088 | -70.58489 | 6455 ft | 289 kts | 5° |
| 2026-05-05 16:43 | 42.24055 | -70.57938 | 6162 ft | 288 kts | 5° |
| 2026-05-05 16:43 | 42.26018 | -70.57386 | 5892 ft | 288 kts | 5° |
| 2026-05-05 16:44 | 42.27998 | -70.56827 | 5619 ft | 287 kts | 5° |
| 2026-05-05 16:44 | 42.29953 | -70.56341 | 5342 ft | 283 kts | 358° |
| 2026-05-05 16:44 | 42.31874 | -70.56491 | 5089 ft | 272 kts | 340° |
| 2026-05-05 16:44 | 42.33613 | -70.57348 | 5008 ft | 262 kts | 324° |
| 2026-05-05 16:45 | 42.35060 | -70.58778 | 5015 ft | 255 kts | 309° |
| 2026-05-05 16:45 | 42.36325 | -70.60455 | 5017 ft | 255 kts | 309° |
| 2026-05-05 16:45 | 42.37597 | -70.62133 | 5012 ft | 256 kts | 309° |
| 2026-05-05 16:45 | 42.38875 | -70.63813 | 5009 ft | 256 kts | 309° |
| 2026-05-05 16:46 | 42.40155 | -70.65488 | 5008 ft | 256 kts | 309° |
| 2026-05-05 16:46 | 42.41438 | -70.67165 | 5005 ft | 257 kts | 309° |
| 2026-05-05 16:46 | 42.42721 | -70.68847 | 5002 ft | 257 kts | 309° |
| 2026-05-05 16:46 | 42.44000 | -70.70534 | 4985 ft | 257 kts | 309° |
| 2026-05-05 16:47 | 42.45264 | -70.72206 | 4729 ft | 255 kts | 309° |
| 2026-05-05 16:47 | 42.46521 | -70.73869 | 4472 ft | 251 kts | 309° |
| 2026-05-05 16:47 | 42.47761 | -70.75507 | 4214 ft | 247 kts | 309° |
| 2026-05-05 16:47 | 42.48973 | -70.77103 | 4028 ft | 239 kts | 309° |
| 2026-05-05 16:48 | 42.50147 | -70.78651 | 3852 ft | 232 kts | 309° |
| 2026-05-05 16:48 | 42.51281 | -70.80147 | 3678 ft | 224 kts | 309° |
| 2026-05-05 16:48 | 42.52370 | -70.81582 | 3532 ft | 213 kts | 309° |
| 2026-05-05 16:48 | 42.53418 | -70.82955 | 3354 ft | 207 kts | 309° |
| 2026-05-05 16:49 | 42.54370 | -70.84371 | 3179 ft | 198 kts | 292° |
| 2026-05-05 16:49 | 42.54683 | -70.86105 | 3068 ft | 189 kts | 269° |
| 2026-05-05 16:49 | 42.54698 | -70.87885 | 2993 ft | 189 kts | 266° |
| 2026-05-05 16:49 | 42.54545 | -70.89650 | 2989 ft | 188 kts | 252° |
| 2026-05-05 16:50 | 42.53956 | -70.91224 | 2995 ft | 188 kts | 233° |
| 2026-05-05 16:50 | 42.52993 | -70.92398 | 3018 ft | 183 kts | 215° |
| 2026-05-05 16:50 | 42.51872 | -70.93036 | 2969 ft | 168 kts | 206° |
| 2026-05-05 16:50 | 42.50806 | -70.93555 | 2802 ft | 160 kts | 207° |
| 2026-05-05 16:51 | 42.49774 | -70.94060 | 2614 ft | 156 kts | 206° |
| 2026-05-05 16:51 | 42.48757 | -70.94556 | 2431 ft | 155 kts | 206° |
| 2026-05-05 16:51 | 42.47743 | -70.95050 | 2219 ft | 155 kts | 205° |
| 2026-05-05 16:51 | 42.46731 | -70.95542 | 2026 ft | 153 kts | 205° |
| 2026-05-05 16:52 | 42.45765 | -70.96010 | 1838 ft | 143 kts | 205° |
| 2026-05-05 16:52 | 42.44848 | -70.96455 | 1655 ft | 139 kts | 205° |
| 2026-05-05 16:52 | 42.43948 | -70.96892 | 1457 ft | 136 kts | 206° |
| 2026-05-05 16:52 | 42.43060 | -70.97324 | 1261 ft | 135 kts | 206° |
| 2026-05-05 16:53 | 42.42183 | -70.97749 | 1081 ft | 134 kts | 206° |
| 2026-05-05 16:53 | 42.41302 | -70.98177 | 887 ft | 136 kts | 204° |
| 2026-05-05 16:53 | 42.40415 | -70.98607 | 697 ft | 136 kts | 203° |
| 2026-05-05 16:53 | 42.39524 | -70.99037 | 514 ft | 135 kts | 201° |
| 2026-05-05 16:54 | 42.38640 | -70.99468 | 347 ft | 138 kts | 202° |
| 2026-05-05 16:54 | 42.37749 | -70.99902 | 162 ft | 137 kts | 200° |
| 2026-05-05 16:54 | 42.36862 | -71.00337 | 30 ft | 128 kts | 200° |
| 2026-05-05 16:54 | 42.36229 | -71.00641 | 27 ft | 64 kts | 199° |
| 2026-05-05 16:55 | 42.36024 | -71.00751 | 27 ft | 16 kts | 218° |
| 2026-05-05 16:55 | 42.35948 | -71.00866 | 26 ft | 17 kts | 230° |
| 2026-05-05 16:55 | 42.35875 | -71.00983 | 29 ft | 16 kts | 229° |
| 2026-05-05 16:55 | 42.35833 | -71.01093 | 25 ft | 13 kts | 264° |
| 2026-05-05 16:56 | 42.35843 | -71.01224 | 25 ft | 15 kts | 278° |
| 2026-05-05 16:56 | 42.35857 | -71.01366 | 25 ft | 16 kts | 278° |
| 2026-05-05 16:56 | 42.35876 | -71.01501 | 30 ft | 8 kts | 282° |
| 2026-05-05 16:56 | 42.35887 | -71.01583 | 25 ft | 10 kts | 279° |
| 2026-05-05 16:57 | 42.35933 | -71.01626 | 27 ft | 10 kts | 14° |
| 2026-05-05 16:57 | 42.36003 | -71.01593 | 29 ft | 11 kts | 19° |
| 2026-05-05 16:57 | 42.36082 | -71.01554 | 27 ft | 13 kts | 19° |
| 2026-05-05 16:57 | 42.36172 | -71.01511 | 27 ft | 14 kts | 20° |
| 2026-05-05 16:58 | 42.36235 | -71.01481 | 28 ft | 15 kts | 19° |
| 2026-05-05 16:58 | 42.36374 | -71.01414 | 27 ft | 17 kts | 19° |
| 2026-05-05 16:58 | 42.36447 | -71.01378 | 30 ft | 17 kts | 20° |
| 2026-05-05 16:58 | 42.36560 | -71.01308 | 28 ft | 18 kts | 24° |
| 2026-05-05 16:59 | 42.36664 | -71.01262 | 27 ft | 11 kts | 13° |
| 2026-05-05 16:59 | 42.36701 | -71.01328 | 26 ft | 11 kts | 261° |
| 2026-05-05 16:59 | 42.36682 | -71.01415 | 30 ft | 8 kts | 222° |
| 2026-05-05 16:59 | 42.36636 | -71.01451 | 29 ft | 4 kts | 216° |
| 2026-05-05 17:00 | 42.36617 | -71.01470 | 26 ft | 1 kts | 216° |
| 2026-05-05 17:00 | 42.36616 | -71.01471 | 30 ft | 0 kts | 216° |